Pagrindinis puslapis
METAR-TAF:

METAR-TAF

Oro uostai :

Nadžranas, Saudo Arabija

platuma: 17-37N, ilguma: 044-25E, Aukštis: 1212 m

Dabartinis oras

Ataskaita buvo paskelbta 33 minutes, ne 17:00 UTC
Vėjas 12 kt iš Vakarų
Temperatūra 24°C
Drėgmė 25%
Slėgis 1016 hPa
Matomumas 10 km arba daugiau
Mažai debesys ne aukštis 3000 ft

METAR: OENG 221700Z 27012KT 9999 FEW030 24/03 Q1016 NOSIG

Laikas: 20:33 (17:33 UTC)

Prognozė

Ataskaita buvo paskelbta 6 valandos ir 33 minutes, ne 11:00 UTC
Prognozė galioja nuo 22 metu 12 UTC su 23 metu 18 UTC
Vėjas 10 kt iš Pietvakarių su gūsio iki 20 kt
Matomumas: 8000 m
Laikinai
nuo 22 metu 12 UTC su 22 metu 18 UTC
Matomumas: 5000 m
dulkės, Dulkes pustymas
Tapsmas
nuo 22 metu 18 UTC su 22 metu 20 UTC
Vėjas 3 kt nuo kintamojo kryptimis

TAF: OENG 221100Z 2212/2318 23010G20KT 8000 NSC TEMPO 2212/2218 5000 DU BLDU BECMG 2218/2220 VRB03KT

Orai ataskaitas ir orų prognozės (METAR, TAF).

turimą stotys yra geltonos ir raudonos taškus žemėlapyje.

Perkelti pele per norėdami pamatyti stoties vardą.

Tada spustelėkite, norėdami matyti oro stebėjimo ir prognozės.

Norėdami pakeisti žemėlapį: spustelėkite ant žalios mygtukų su juodo kryžiaus žemyn,; žalią mygtuką su brūkšneliu, jei norite nutolinti; arba žalių rodyklių gretimoms žemėlapius.


METAR-TAF: